sensor_id;sensor_type;location;lat;lon;timestamp;P1;durP1;ratioP1;P2;durP2;ratioP2
56770;SDS011;42641;59.794;17.616;2024-02-28T00:02:18;1.70;;;1.60;;
56770;SDS011;42641;59.794;17.616;2024-02-28T00:04:44;1.60;;;1.50;;
56770;SDS011;42641;59.794;17.616;2024-02-28T00:07:11;1.80;;;1.70;;
56770;SDS011;42641;59.794;17.616;2024-02-28T00:09:38;1.93;;;1.80;;
56770;SDS011;42641;59.794;17.616;2024-02-28T00:12:04;1.90;;;1.70;;
56770;SDS011;42641;59.794;17.616;2024-02-28T00:14:31;3.53;;;1.97;;
56770;SDS011;42641;59.794;17.616;2024-02-28T00:16:57;1.63;;;1.53;;
56770;SDS011;42641;59.794;17.616;2024-02-28T00:19:23;2.60;;;1.80;;
56770;SDS011;42641;59.794;17.616;2024-02-28T00:21:51;2.10;;;1.90;;
56770;SDS011;42641;59.794;17.616;2024-02-28T00:24:17;1.80;;;1.70;;
56770;SDS011;42641;59.794;17.616;2024-02-28T00:26:44;2.10;;;1.90;;
56770;SDS011;42641;59.794;17.616;2024-02-28T00:29:11;2.10;;;1.90;;
56770;SDS011;42641;59.794;17.616;2024-02-28T00:31:37;1.90;;;1.80;;
56770;SDS011;42641;59.794;17.616;2024-02-28T00:34:04;2.10;;;1.90;;
56770;SDS011;42641;59.794;17.616;2024-02-28T00:36:30;1.83;;;1.73;;
56770;SDS011;42641;59.794;17.616;2024-02-28T00:38:56;2.00;;;1.80;;
56770;SDS011;42641;59.794;17.616;2024-02-28T00:41:23;2.13;;;1.93;;
56770;SDS011;42641;59.794;17.616;2024-02-28T00:43:49;1.90;;;1.57;;
56770;SDS011;42641;59.794;17.616;2024-02-28T00:46:15;2.13;;;1.80;;
56770;SDS011;42641;59.794;17.616;2024-02-28T00:48:42;2.00;;;1.90;;
56770;SDS011;42641;59.794;17.616;2024-02-28T00:51:08;2.17;;;1.97;;
56770;SDS011;42641;59.794;17.616;2024-02-28T00:53:34;2.30;;;2.10;;
56770;SDS011;42641;59.794;17.616;2024-02-28T00:56:01;1.93;;;1.83;;
56770;SDS011;42641;59.794;17.616;2024-02-28T00:58:27;2.03;;;1.87;;
56770;SDS011;42641;59.794;17.616;2024-02-28T01:00:55;2.33;;;2.10;;
56770;SDS011;42641;59.794;17.616;2024-02-28T01:03:22;1.90;;;1.80;;
56770;SDS011;42641;59.794;17.616;2024-02-28T01:05:49;2.20;;;2.00;;
56770;SDS011;42641;59.794;17.616;2024-02-28T01:08:16;2.30;;;2.10;;
56770;SDS011;42641;59.794;17.616;2024-02-28T01:10:44;2.30;;;2.10;;
56770;SDS011;42641;59.794;17.616;2024-02-28T01:13:10;2.27;;;2.07;;
56770;SDS011;42641;59.794;17.616;2024-02-28T01:15:39;2.53;;;2.33;;
56770;SDS011;42641;59.794;17.616;2024-02-28T01:18:07;2.30;;;2.10;;
56770;SDS011;42641;59.794;17.616;2024-02-28T01:20:34;2.43;;;2.23;;
56770;SDS011;42641;59.794;17.616;2024-02-28T01:23:00;2.53;;;2.33;;
56770;SDS011;42641;59.794;17.616;2024-02-28T01:25:27;2.27;;;2.07;;
56770;SDS011;42641;59.794;17.616;2024-02-28T01:27:55;2.27;;;2.07;;
56770;SDS011;42641;59.794;17.616;2024-02-28T01:30:24;2.47;;;2.20;;
56770;SDS011;42641;59.794;17.616;2024-02-28T01:32:50;2.60;;;2.27;;
56770;SDS011;42641;59.794;17.616;2024-02-28T01:35:17;2.60;;;2.40;;
56770;SDS011;42641;59.794;17.616;2024-02-28T01:37:43;2.90;;;2.27;;
56770;SDS011;42641;59.794;17.616;2024-02-28T01:40:10;2.80;;;2.37;;
56770;SDS011;42641;59.794;17.616;2024-02-28T01:42:36;2.50;;;2.30;;
56770;SDS011;42641;59.794;17.616;2024-02-28T01:45:03;2.73;;;2.53;;
56770;SDS011;42641;59.794;17.616;2024-02-28T01:47:30;3.30;;;2.50;;
56770;SDS011;42641;59.794;17.616;2024-02-28T01:49:57;2.30;;;2.10;;
56770;SDS011;42641;59.794;17.616;2024-02-28T01:52:23;2.30;;;2.10;;
56770;SDS011;42641;59.794;17.616;2024-02-28T01:54:49;2.43;;;2.23;;
56770;SDS011;42641;59.794;17.616;2024-02-28T01:57:16;2.70;;;2.50;;
56770;SDS011;42641;59.794;17.616;2024-02-28T01:59:43;2.40;;;2.20;;
56770;SDS011;42641;59.794;17.616;2024-02-28T02:02:09;2.87;;;2.40;;
56770;SDS011;42641;59.794;17.616;2024-02-28T02:04:36;1.97;;;1.83;;
56770;SDS011;42641;59.794;17.616;2024-02-28T02:07:02;2.50;;;2.30;;
56770;SDS011;42641;59.794;17.616;2024-02-28T02:09:29;2.43;;;2.23;;
56770;SDS011;42641;59.794;17.616;2024-02-28T02:11:55;2.63;;;2.37;;
56770;SDS011;42641;59.794;17.616;2024-02-28T02:14:21;3.33;;;2.37;;
56770;SDS011;42641;59.794;17.616;2024-02-28T02:16:48;2.60;;;2.23;;
56770;SDS011;42641;59.794;17.616;2024-02-28T02:19:14;2.97;;;2.47;;
56770;SDS011;42641;59.794;17.616;2024-02-28T02:21:48;2.20;;;2.07;;
56770;SDS011;42641;59.794;17.616;2024-02-28T02:24:18;3.87;;;2.17;;
56770;SDS011;42641;59.794;17.616;2024-02-28T02:26:46;2.47;;;2.07;;
56770;SDS011;42641;59.794;17.616;2024-02-28T02:29:13;2.40;;;2.20;;
56770;SDS011;42641;59.794;17.616;2024-02-28T02:31:39;3.17;;;2.50;;
56770;SDS011;42641;59.794;17.616;2024-02-28T02:34:06;2.30;;;2.00;;
56770;SDS011;42641;59.794;17.616;2024-02-28T02:36:33;2.60;;;2.40;;
56770;SDS011;42641;59.794;17.616;2024-02-28T02:38:59;3.20;;;2.80;;
56770;SDS011;42641;59.794;17.616;2024-02-28T02:41:26;2.30;;;2.10;;
56770;SDS011;42641;59.794;17.616;2024-02-28T02:43:52;2.30;;;2.10;;
56770;SDS011;42641;59.794;17.616;2024-02-28T02:46:18;2.93;;;2.20;;
56770;SDS011;42641;59.794;17.616;2024-02-28T02:48:45;2.93;;;2.37;;
56770;SDS011;42641;59.794;17.616;2024-02-28T02:51:11;2.77;;;2.43;;
56770;SDS011;42641;59.794;17.616;2024-02-28T02:53:37;2.60;;;2.40;;
56770;SDS011;42641;59.794;17.616;2024-02-28T02:56:04;2.57;;;2.20;;
56770;SDS011;42641;59.794;17.616;2024-02-28T02:58:31;2.97;;;2.50;;
56770;SDS011;42641;59.794;17.616;2024-02-28T03:00:57;2.57;;;2.00;;
56770;SDS011;42641;59.794;17.616;2024-02-28T03:03:23;2.57;;;2.30;;
56770;SDS011;42641;59.794;17.616;2024-02-28T03:05:50;2.27;;;2.07;;
56770;SDS011;42641;59.794;17.616;2024-02-28T03:08:16;2.77;;;2.43;;
56770;SDS011;42641;59.794;17.616;2024-02-28T03:10:42;2.50;;;2.30;;
56770;SDS011;42641;59.794;17.616;2024-02-28T03:13:09;2.97;;;2.60;;
56770;SDS011;42641;59.794;17.616;2024-02-28T03:15:35;2.43;;;2.23;;
56770;SDS011;42641;59.794;17.616;2024-02-28T03:18:01;2.77;;;2.10;;
56770;SDS011;42641;59.794;17.616;2024-02-28T03:20:28;2.50;;;2.27;;
56770;SDS011;42641;59.794;17.616;2024-02-28T03:22:54;3.77;;;2.30;;
56770;SDS011;42641;59.794;17.616;2024-02-28T03:25:21;3.50;;;2.40;;
56770;SDS011;42641;59.794;17.616;2024-02-28T03:27:47;2.60;;;2.30;;
56770;SDS011;42641;59.794;17.616;2024-02-28T03:30:14;2.50;;;2.30;;
56770;SDS011;42641;59.794;17.616;2024-02-28T03:32:40;2.60;;;2.40;;
56770;SDS011;42641;59.794;17.616;2024-02-28T03:35:07;2.67;;;2.47;;
56770;SDS011;42641;59.794;17.616;2024-02-28T03:37:34;6.13;;;2.53;;
56770;SDS011;42641;59.794;17.616;2024-02-28T03:40:01;2.60;;;2.40;;
56770;SDS011;42641;59.794;17.616;2024-02-28T03:42:27;2.50;;;2.30;;
56770;SDS011;42641;59.794;17.616;2024-02-28T03:44:53;2.93;;;2.50;;
56770;SDS011;42641;59.794;17.616;2024-02-28T03:47:20;2.63;;;2.37;;
56770;SDS011;42641;59.794;17.616;2024-02-28T03:49:46;3.03;;;2.73;;
56770;SDS011;42641;59.794;17.616;2024-02-28T03:52:13;2.93;;;2.50;;
56770;SDS011;42641;59.794;17.616;2024-02-28T03:54:41;3.33;;;2.50;;
56770;SDS011;42641;59.794;17.616;2024-02-28T03:57:09;3.30;;;3.00;;
56770;SDS011;42641;59.794;17.616;2024-02-28T03:59:35;3.07;;;2.47;;
56770;SDS011;42641;59.794;17.616;2024-02-28T04:02:02;3.50;;;3.00;;
56770;SDS011;42641;59.794;17.616;2024-02-28T04:04:28;3.20;;;2.90;;
56770;SDS011;42641;59.794;17.616;2024-02-28T04:06:55;3.77;;;2.93;;
56770;SDS011;42641;59.794;17.616;2024-02-28T04:09:21;3.80;;;3.07;;
56770;SDS011;42641;59.794;17.616;2024-02-28T04:11:47;3.90;;;2.80;;
56770;SDS011;42641;59.794;17.616;2024-02-28T04:14:14;4.37;;;3.20;;
56770;SDS011;42641;59.794;17.616;2024-02-28T04:16:41;3.37;;;2.93;;
56770;SDS011;42641;59.794;17.616;2024-02-28T04:19:12;5.03;;;3.10;;
56770;SDS011;42641;59.794;17.616;2024-02-28T04:21:39;4.10;;;3.03;;
56770;SDS011;42641;59.794;17.616;2024-02-28T04:24:08;3.30;;;3.00;;
56770;SDS011;42641;59.794;17.616;2024-02-28T04:26:35;3.80;;;2.90;;
56770;SDS011;42641;59.794;17.616;2024-02-28T04:29:01;3.33;;;3.03;;
56770;SDS011;42641;59.794;17.616;2024-02-28T04:31:30;3.40;;;3.10;;
56770;SDS011;42641;59.794;17.616;2024-02-28T04:33:57;5.40;;;3.10;;
56770;SDS011;42641;59.794;17.616;2024-02-28T04:36:24;4.03;;;3.10;;
56770;SDS011;42641;59.794;17.616;2024-02-28T04:38:50;3.50;;;2.53;;
56770;SDS011;42641;59.794;17.616;2024-02-28T04:41:16;3.53;;;3.03;;
56770;SDS011;42641;59.794;17.616;2024-02-28T04:43:43;3.20;;;2.90;;
56770;SDS011;42641;59.794;17.616;2024-02-28T04:46:09;2.87;;;2.57;;
56770;SDS011;42641;59.794;17.616;2024-02-28T04:48:35;3.63;;;2.87;;
56770;SDS011;42641;59.794;17.616;2024-02-28T04:51:02;3.90;;;2.60;;
56770;SDS011;42641;59.794;17.616;2024-02-28T04:53:28;2.97;;;2.50;;
56770;SDS011;42641;59.794;17.616;2024-02-28T04:55:54;3.10;;;2.80;;
56770;SDS011;42641;59.794;17.616;2024-02-28T04:58:21;2.60;;;2.40;;
56770;SDS011;42641;59.794;17.616;2024-02-28T05:00:47;2.90;;;2.53;;
56770;SDS011;42641;59.794;17.616;2024-02-28T05:03:14;3.37;;;2.67;;
56770;SDS011;42641;59.794;17.616;2024-02-28T05:05:40;2.43;;;2.23;;
56770;SDS011;42641;59.794;17.616;2024-02-28T05:08:06;3.03;;;2.40;;
56770;SDS011;42641;59.794;17.616;2024-02-28T05:10:33;3.03;;;2.40;;
56770;SDS011;42641;59.794;17.616;2024-02-28T05:12:59;2.50;;;2.20;;
56770;SDS011;42641;59.794;17.616;2024-02-28T05:15:26;2.40;;;2.20;;
56770;SDS011;42641;59.794;17.616;2024-02-28T05:17:52;3.43;;;2.07;;
56770;SDS011;42641;59.794;17.616;2024-02-28T05:20:19;2.43;;;2.23;;
56770;SDS011;42641;59.794;17.616;2024-02-28T05:22:45;5.07;;;2.27;;
56770;SDS011;42641;59.794;17.616;2024-02-28T05:25:12;2.13;;;1.93;;
56770;SDS011;42641;59.794;17.616;2024-02-28T05:27:39;2.00;;;1.90;;
56770;SDS011;42641;59.794;17.616;2024-02-28T05:30:05;2.60;;;2.40;;
56770;SDS011;42641;59.794;17.616;2024-02-28T05:32:32;3.23;;;2.37;;
56770;SDS011;42641;59.794;17.616;2024-02-28T05:34:59;2.37;;;2.17;;
56770;SDS011;42641;59.794;17.616;2024-02-28T05:37:25;2.30;;;2.00;;
56770;SDS011;42641;59.794;17.616;2024-02-28T05:39:52;2.30;;;2.10;;
56770;SDS011;42641;59.794;17.616;2024-02-28T05:42:18;2.30;;;2.10;;
56770;SDS011;42641;59.794;17.616;2024-02-28T05:44:48;2.30;;;2.10;;
56770;SDS011;42641;59.794;17.616;2024-02-28T05:47:15;3.03;;;2.00;;
56770;SDS011;42641;59.794;17.616;2024-02-28T05:49:41;2.33;;;2.00;;
56770;SDS011;42641;59.794;17.616;2024-02-28T05:52:09;2.47;;;2.17;;
56770;SDS011;42641;59.794;17.616;2024-02-28T05:54:35;2.40;;;2.20;;
56770;SDS011;42641;59.794;17.616;2024-02-28T05:57:02;1.67;;;1.57;;
56770;SDS011;42641;59.794;17.616;2024-02-28T05:59:29;2.00;;;1.90;;
56770;SDS011;42641;59.794;17.616;2024-02-28T06:01:55;2.10;;;1.90;;
56770;SDS011;42641;59.794;17.616;2024-02-28T06:04:21;1.97;;;1.70;;
56770;SDS011;42641;59.794;17.616;2024-02-28T06:06:48;2.23;;;2.03;;
56770;SDS011;42641;59.794;17.616;2024-02-28T06:09:16;2.07;;;1.87;;
56770;SDS011;42641;59.794;17.616;2024-02-28T06:11:42;1.73;;;1.63;;
56770;SDS011;42641;59.794;17.616;2024-02-28T06:14:09;2.10;;;1.90;;
56770;SDS011;42641;59.794;17.616;2024-02-28T06:16:35;1.97;;;1.83;;
56770;SDS011;42641;59.794;17.616;2024-02-28T06:19:01;1.77;;;1.60;;
56770;SDS011;42641;59.794;17.616;2024-02-28T06:21:28;2.17;;;1.87;;
56770;SDS011;42641;59.794;17.616;2024-02-28T06:23:55;2.50;;;2.30;;
56770;SDS011;42641;59.794;17.616;2024-02-28T06:26:21;2.30;;;2.10;;
56770;SDS011;42641;59.794;17.616;2024-02-28T06:28:48;2.83;;;2.07;;
56770;SDS011;42641;59.794;17.616;2024-02-28T06:31:16;2.17;;;1.90;;
56770;SDS011;42641;59.794;17.616;2024-02-28T06:33:43;2.73;;;1.90;;
56770;SDS011;42641;59.794;17.616;2024-02-28T06:36:10;1.90;;;1.80;;
56770;SDS011;42641;59.794;17.616;2024-02-28T06:38:36;2.10;;;1.90;;
56770;SDS011;42641;59.794;17.616;2024-02-28T06:41:03;2.10;;;1.90;;
56770;SDS011;42641;59.794;17.616;2024-02-28T06:43:32;1.57;;;1.47;;
56770;SDS011;42641;59.794;17.616;2024-02-28T06:45:59;2.17;;;1.93;;
56770;SDS011;42641;59.794;17.616;2024-02-28T06:48:25;2.33;;;1.80;;
56770;SDS011;42641;59.794;17.616;2024-02-28T06:50:51;2.03;;;1.70;;
56770;SDS011;42641;59.794;17.616;2024-02-28T06:53:18;4.03;;;2.17;;
56770;SDS011;42641;59.794;17.616;2024-02-28T06:55:44;1.80;;;1.70;;
56770;SDS011;42641;59.794;17.616;2024-02-28T06:58:11;2.10;;;1.80;;
56770;SDS011;42641;59.794;17.616;2024-02-28T07:00:37;1.83;;;1.73;;
56770;SDS011;42641;59.794;17.616;2024-02-28T07:03:04;1.77;;;1.67;;
56770;SDS011;42641;59.794;17.616;2024-02-28T07:05:30;1.90;;;1.77;;
56770;SDS011;42641;59.794;17.616;2024-02-28T07:07:56;1.80;;;1.70;;
56770;SDS011;42641;59.794;17.616;2024-02-28T07:10:23;2.90;;;1.90;;
56770;SDS011;42641;59.794;17.616;2024-02-28T07:12:49;4.77;;;2.10;;
56770;SDS011;42641;59.794;17.616;2024-02-28T07:15:15;1.77;;;1.67;;
56770;SDS011;42641;59.794;17.616;2024-02-28T07:17:45;1.97;;;1.70;;
56770;SDS011;42641;59.794;17.616;2024-02-28T07:20:12;2.00;;;1.80;;
56770;SDS011;42641;59.794;17.616;2024-02-28T07:22:39;1.90;;;1.80;;
56770;SDS011;42641;59.794;17.616;2024-02-28T07:25:05;2.50;;;2.10;;
56770;SDS011;42641;59.794;17.616;2024-02-28T07:27:33;2.10;;;1.90;;
56770;SDS011;42641;59.794;17.616;2024-02-28T07:30:00;2.43;;;2.17;;
56770;SDS011;42641;59.794;17.616;2024-02-28T07:32:28;4.53;;;2.00;;
56770;SDS011;42641;59.794;17.616;2024-02-28T07:35:00;2.57;;;2.10;;
56770;SDS011;42641;59.794;17.616;2024-02-28T07:37:27;2.83;;;2.20;;
56770;SDS011;42641;59.794;17.616;2024-02-28T07:39:53;2.07;;;1.87;;
56770;SDS011;42641;59.794;17.616;2024-02-28T07:42:20;2.63;;;2.43;;
56770;SDS011;42641;59.794;17.616;2024-02-28T07:44:46;3.07;;;2.40;;
56770;SDS011;42641;59.794;17.616;2024-02-28T07:47:12;3.10;;;2.50;;
56770;SDS011;42641;59.794;17.616;2024-02-28T07:49:40;2.60;;;2.40;;
56770;SDS011;42641;59.794;17.616;2024-02-28T07:52:06;2.30;;;2.10;;
56770;SDS011;42641;59.794;17.616;2024-02-28T07:54:33;2.90;;;2.07;;
56770;SDS011;42641;59.794;17.616;2024-02-28T07:56:59;2.80;;;2.07;;
56770;SDS011;42641;59.794;17.616;2024-02-28T07:59:25;2.80;;;2.27;;
56770;SDS011;42641;59.794;17.616;2024-02-28T08:01:52;2.93;;;2.60;;
56770;SDS011;42641;59.794;17.616;2024-02-28T08:04:18;2.70;;;2.47;;
56770;SDS011;42641;59.794;17.616;2024-02-28T08:06:44;2.50;;;2.30;;
56770;SDS011;42641;59.794;17.616;2024-02-28T08:09:11;2.47;;;2.27;;
56770;SDS011;42641;59.794;17.616;2024-02-28T08:11:38;2.63;;;2.30;;
56770;SDS011;42641;59.794;17.616;2024-02-28T08:14:04;3.87;;;2.30;;
56770;SDS011;42641;59.794;17.616;2024-02-28T08:16:30;2.57;;;2.27;;
56770;SDS011;42641;59.794;17.616;2024-02-28T08:18:57;2.50;;;2.30;;
56770;SDS011;42641;59.794;17.616;2024-02-28T08:21:24;3.23;;;2.40;;
56770;SDS011;42641;59.794;17.616;2024-02-28T08:23:52;2.70;;;2.37;;
56770;SDS011;42641;59.794;17.616;2024-02-28T08:26:18;4.13;;;2.80;;
56770;SDS011;42641;59.794;17.616;2024-02-28T08:28:45;3.03;;;2.47;;
56770;SDS011;42641;59.794;17.616;2024-02-28T08:31:11;2.63;;;2.43;;
56770;SDS011;42641;59.794;17.616;2024-02-28T08:33:37;3.03;;;2.67;;
56770;SDS011;42641;59.794;17.616;2024-02-28T08:36:04;2.90;;;2.60;;
56770;SDS011;42641;59.794;17.616;2024-02-28T08:38:30;2.60;;;2.40;;
56770;SDS011;42641;59.794;17.616;2024-02-28T08:40:57;2.47;;;2.23;;
56770;SDS011;42641;59.794;17.616;2024-02-28T08:43:23;2.47;;;2.27;;
56770;SDS011;42641;59.794;17.616;2024-02-28T08:45:50;2.60;;;2.30;;
56770;SDS011;42641;59.794;17.616;2024-02-28T08:48:17;2.80;;;2.60;;
56770;SDS011;42641;59.794;17.616;2024-02-28T08:50:43;2.63;;;2.43;;
56770;SDS011;42641;59.794;17.616;2024-02-28T08:53:09;2.47;;;2.27;;
56770;SDS011;42641;59.794;17.616;2024-02-28T08:55:36;2.77;;;2.50;;
56770;SDS011;42641;59.794;17.616;2024-02-28T08:58:03;2.83;;;2.60;;
56770;SDS011;42641;59.794;17.616;2024-02-28T09:00:29;3.53;;;2.40;;
56770;SDS011;42641;59.794;17.616;2024-02-28T09:02:56;3.43;;;2.97;;
56770;SDS011;42641;59.794;17.616;2024-02-28T09:05:23;2.60;;;2.40;;
56770;SDS011;42641;59.794;17.616;2024-02-28T09:07:49;2.67;;;2.47;;
56770;SDS011;42641;59.794;17.616;2024-02-28T09:10:17;2.70;;;2.37;;
56770;SDS011;42641;59.794;17.616;2024-02-28T09:12:50;2.83;;;2.53;;
56770;SDS011;42641;59.794;17.616;2024-02-28T09:15:16;3.10;;;2.80;;
56770;SDS011;42641;59.794;17.616;2024-02-28T09:17:43;2.40;;;2.20;;
56770;SDS011;42641;59.794;17.616;2024-02-28T09:20:10;2.77;;;2.40;;
56770;SDS011;42641;59.794;17.616;2024-02-28T09:22:37;2.53;;;2.33;;
56770;SDS011;42641;59.794;17.616;2024-02-28T09:25:04;2.80;;;2.40;;
56770;SDS011;42641;59.794;17.616;2024-02-28T09:27:31;2.67;;;2.47;;
56770;SDS011;42641;59.794;17.616;2024-02-28T09:29:58;2.43;;;2.23;;
56770;SDS011;42641;59.794;17.616;2024-02-28T09:32:25;2.63;;;2.40;;
56770;SDS011;42641;59.794;17.616;2024-02-28T09:34:51;2.80;;;2.37;;
56770;SDS011;42641;59.794;17.616;2024-02-28T09:37:18;2.40;;;2.20;;
56770;SDS011;42641;59.794;17.616;2024-02-28T09:39:46;3.00;;;2.10;;
56770;SDS011;42641;59.794;17.616;2024-02-28T09:42:13;2.10;;;2.00;;
56770;SDS011;42641;59.794;17.616;2024-02-28T09:44:40;2.97;;;2.40;;
56770;SDS011;42641;59.794;17.616;2024-02-28T09:47:08;2.03;;;1.90;;
56770;SDS011;42641;59.794;17.616;2024-02-28T09:49:37;2.23;;;1.90;;
56770;SDS011;42641;59.794;17.616;2024-02-28T09:52:03;2.50;;;2.30;;
56770;SDS011;42641;59.794;17.616;2024-02-28T09:54:30;2.47;;;2.10;;
56770;SDS011;42641;59.794;17.616;2024-02-28T09:56:56;2.93;;;2.03;;
56770;SDS011;42641;59.794;17.616;2024-02-28T09:59:23;2.60;;;2.37;;
56770;SDS011;42641;59.794;17.616;2024-02-28T10:01:55;2.53;;;2.20;;
56770;SDS011;42641;59.794;17.616;2024-02-28T10:04:23;2.30;;;2.10;;
56770;SDS011;42641;59.794;17.616;2024-02-28T10:06:51;2.50;;;2.30;;
56770;SDS011;42641;59.794;17.616;2024-02-28T10:09:18;2.80;;;2.37;;
56770;SDS011;42641;59.794;17.616;2024-02-28T10:11:44;2.30;;;2.10;;
56770;SDS011;42641;59.794;17.616;2024-02-28T10:14:14;2.40;;;2.20;;
56770;SDS011;42641;59.794;17.616;2024-02-28T10:16:43;1.87;;;1.77;;
56770;SDS011;42641;59.794;17.616;2024-02-28T10:19:09;2.70;;;2.23;;
56770;SDS011;42641;59.794;17.616;2024-02-28T10:21:36;2.80;;;2.40;;
56770;SDS011;42641;59.794;17.616;2024-02-28T10:24:02;3.00;;;2.60;;
56770;SDS011;42641;59.794;17.616;2024-02-28T10:26:30;3.63;;;2.80;;
56770;SDS011;42641;59.794;17.616;2024-02-28T10:29:02;3.37;;;2.87;;
56770;SDS011;42641;59.794;17.616;2024-02-28T10:31:31;2.53;;;2.33;;
56770;SDS011;42641;59.794;17.616;2024-02-28T10:33:59;2.40;;;2.20;;
56770;SDS011;42641;59.794;17.616;2024-02-28T10:36:28;2.67;;;2.47;;
56770;SDS011;42641;59.794;17.616;2024-02-28T10:38:57;3.00;;;2.70;;
56770;SDS011;42641;59.794;17.616;2024-02-28T10:41:26;2.97;;;2.67;;
56770;SDS011;42641;59.794;17.616;2024-02-28T10:43:53;3.43;;;2.70;;
56770;SDS011;42641;59.794;17.616;2024-02-28T10:46:20;2.87;;;2.53;;
56770;SDS011;42641;59.794;17.616;2024-02-28T10:48:49;3.30;;;2.80;;
56770;SDS011;42641;59.794;17.616;2024-02-28T10:51:20;2.87;;;2.60;;
56770;SDS011;42641;59.794;17.616;2024-02-28T10:54:09;4.10;;;2.70;;
56770;SDS011;42641;59.794;17.616;2024-02-28T10:56:40;3.27;;;2.80;;
56770;SDS011;42641;59.794;17.616;2024-02-28T10:59:07;3.07;;;2.77;;
56770;SDS011;42641;59.794;17.616;2024-02-28T11:01:35;3.10;;;2.60;;
56770;SDS011;42641;59.794;17.616;2024-02-28T11:04:04;2.93;;;2.47;;
56770;SDS011;42641;59.794;17.616;2024-02-28T11:06:31;2.70;;;2.43;;
56770;SDS011;42641;59.794;17.616;2024-02-28T11:08:58;2.77;;;2.40;;
56770;SDS011;42641;59.794;17.616;2024-02-28T11:11:32;3.00;;;2.50;;
56770;SDS011;42641;59.794;17.616;2024-02-28T11:13:59;3.77;;;2.70;;
56770;SDS011;42641;59.794;17.616;2024-02-28T11:16:32;2.50;;;2.30;;
56770;SDS011;42641;59.794;17.616;2024-02-28T11:18:59;2.60;;;2.40;;
56770;SDS011;42641;59.794;17.616;2024-02-28T11:21:28;2.70;;;2.50;;
56770;SDS011;42641;59.794;17.616;2024-02-28T11:23:58;2.80;;;2.57;;
56770;SDS011;42641;59.794;17.616;2024-02-28T11:26:26;3.33;;;3.03;;
56770;SDS011;42641;59.794;17.616;2024-02-28T11:28:54;3.23;;;2.93;;
56770;SDS011;42641;59.794;17.616;2024-02-28T11:31:23;3.03;;;2.80;;
56770;SDS011;42641;59.794;17.616;2024-02-28T11:33:49;3.07;;;2.73;;
56770;SDS011;42641;59.794;17.616;2024-02-28T11:36:16;2.63;;;2.43;;
56770;SDS011;42641;59.794;17.616;2024-02-28T11:38:43;3.33;;;2.60;;
56770;SDS011;42641;59.794;17.616;2024-02-28T11:41:12;3.50;;;2.63;;
56770;SDS011;42641;59.794;17.616;2024-02-28T11:43:39;3.40;;;3.00;;
56770;SDS011;42641;59.794;17.616;2024-02-28T11:46:08;3.57;;;2.97;;
56770;SDS011;42641;59.794;17.616;2024-02-28T11:48:38;3.20;;;2.87;;
56770;SDS011;42641;59.794;17.616;2024-02-28T11:51:06;2.80;;;2.60;;
56770;SDS011;42641;59.794;17.616;2024-02-28T11:53:32;3.10;;;2.80;;
56770;SDS011;42641;59.794;17.616;2024-02-28T11:55:58;3.50;;;2.77;;
56770;SDS011;42641;59.794;17.616;2024-02-28T11:58:25;3.23;;;2.93;;
56770;SDS011;42641;59.794;17.616;2024-02-28T12:00:51;3.27;;;2.83;;
56770;SDS011;42641;59.794;17.616;2024-02-28T12:03:24;3.70;;;3.00;;
56770;SDS011;42641;59.794;17.616;2024-02-28T12:05:51;3.00;;;2.70;;
56770;SDS011;42641;59.794;17.616;2024-02-28T12:08:19;3.43;;;3.07;;
56770;SDS011;42641;59.794;17.616;2024-02-28T12:10:46;3.10;;;2.90;;
56770;SDS011;42641;59.794;17.616;2024-02-28T12:13:19;3.07;;;2.77;;
56770;SDS011;42641;59.794;17.616;2024-02-28T12:15:46;3.37;;;2.73;;
56770;SDS011;42641;59.794;17.616;2024-02-28T12:18:16;3.33;;;2.80;;
56770;SDS011;42641;59.794;17.616;2024-02-28T12:20:43;4.80;;;3.23;;
56770;SDS011;42641;59.794;17.616;2024-02-28T12:23:11;3.23;;;2.67;;
56770;SDS011;42641;59.794;17.616;2024-02-28T12:25:37;3.77;;;3.03;;
56770;SDS011;42641;59.794;17.616;2024-02-28T12:28:05;5.03;;;2.73;;
56770;SDS011;42641;59.794;17.616;2024-02-28T12:30:38;2.70;;;2.47;;
56770;SDS011;42641;59.794;17.616;2024-02-28T12:33:07;2.83;;;2.50;;
56770;SDS011;42641;59.794;17.616;2024-02-28T12:35:34;4.33;;;2.93;;
56770;SDS011;42641;59.794;17.616;2024-02-28T12:38:01;2.90;;;2.70;;
56770;SDS011;42641;59.794;17.616;2024-02-28T12:40:27;2.73;;;2.53;;
56770;SDS011;42641;59.794;17.616;2024-02-28T12:42:53;3.93;;;2.67;;
56770;SDS011;42641;59.794;17.616;2024-02-28T12:45:20;3.00;;;2.70;;
56770;SDS011;42641;59.794;17.616;2024-02-28T12:47:46;3.07;;;2.77;;
56770;SDS011;42641;59.794;17.616;2024-02-28T12:50:12;2.87;;;2.50;;
56770;SDS011;42641;59.794;17.616;2024-02-28T12:52:39;2.73;;;2.53;;
56770;SDS011;42641;59.794;17.616;2024-02-28T12:55:05;3.73;;;2.83;;
56770;SDS011;42641;59.794;17.616;2024-02-28T12:57:32;3.20;;;2.90;;
56770;SDS011;42641;59.794;17.616;2024-02-28T12:59:58;4.37;;;3.10;;
56770;SDS011;42641;59.794;17.616;2024-02-28T13:02:25;3.47;;;2.87;;
56770;SDS011;42641;59.794;17.616;2024-02-28T13:04:51;3.13;;;2.83;;
56770;SDS011;42641;59.794;17.616;2024-02-28T13:07:17;3.17;;;2.60;;
56770;SDS011;42641;59.794;17.616;2024-02-28T13:09:47;3.27;;;2.90;;
56770;SDS011;42641;59.794;17.616;2024-02-28T13:12:13;2.87;;;2.67;;
56770;SDS011;42641;59.794;17.616;2024-02-28T13:14:39;2.57;;;2.37;;
56770;SDS011;42641;59.794;17.616;2024-02-28T13:17:06;3.20;;;2.90;;
56770;SDS011;42641;59.794;17.616;2024-02-28T13:19:33;3.80;;;2.90;;
56770;SDS011;42641;59.794;17.616;2024-02-28T13:21:59;2.73;;;2.53;;
56770;SDS011;42641;59.794;17.616;2024-02-28T13:24:26;3.23;;;2.93;;
56770;SDS011;42641;59.794;17.616;2024-02-28T13:26:52;3.80;;;2.70;;
56770;SDS011;42641;59.794;17.616;2024-02-28T13:29:18;3.50;;;3.03;;
56770;SDS011;42641;59.794;17.616;2024-02-28T13:31:44;3.57;;;3.10;;
56770;SDS011;42641;59.794;17.616;2024-02-28T13:34:11;3.13;;;2.83;;
56770;SDS011;42641;59.794;17.616;2024-02-28T13:36:37;3.10;;;2.80;;
56770;SDS011;42641;59.794;17.616;2024-02-28T13:39:09;3.20;;;2.90;;
56770;SDS011;42641;59.794;17.616;2024-02-28T13:41:39;3.53;;;2.63;;
56770;SDS011;42641;59.794;17.616;2024-02-28T13:44:06;3.83;;;2.83;;
56770;SDS011;42641;59.794;17.616;2024-02-28T13:46:33;3.27;;;2.97;;
56770;SDS011;42641;59.794;17.616;2024-02-28T13:48:59;3.33;;;3.03;;
56770;SDS011;42641;59.794;17.616;2024-02-28T13:51:26;3.80;;;3.07;;
56770;SDS011;42641;59.794;17.616;2024-02-28T13:53:52;3.50;;;3.20;;
56770;SDS011;42641;59.794;17.616;2024-02-28T13:56:19;3.80;;;3.07;;
56770;SDS011;42641;59.794;17.616;2024-02-28T13:58:46;3.00;;;2.70;;
56770;SDS011;42641;59.794;17.616;2024-02-28T14:01:13;3.67;;;3.20;;
56770;SDS011;42641;59.794;17.616;2024-02-28T14:03:39;5.87;;;3.53;;
56770;SDS011;42641;59.794;17.616;2024-02-28T14:06:06;3.10;;;2.90;;
56770;SDS011;42641;59.794;17.616;2024-02-28T14:08:32;3.27;;;2.93;;
56770;SDS011;42641;59.794;17.616;2024-02-28T14:10:59;3.40;;;2.93;;
56770;SDS011;42641;59.794;17.616;2024-02-28T14:13:25;3.97;;;2.90;;
56770;SDS011;42641;59.794;17.616;2024-02-28T14:15:51;2.80;;;2.50;;
56770;SDS011;42641;59.794;17.616;2024-02-28T14:18:19;3.00;;;2.70;;
56770;SDS011;42641;59.794;17.616;2024-02-28T14:20:45;3.00;;;2.70;;
56770;SDS011;42641;59.794;17.616;2024-02-28T14:23:11;4.20;;;3.10;;
56770;SDS011;42641;59.794;17.616;2024-02-28T14:25:38;3.40;;;3.10;;
56770;SDS011;42641;59.794;17.616;2024-02-28T14:28:04;3.13;;;2.60;;
56770;SDS011;42641;59.794;17.616;2024-02-28T14:30:30;2.93;;;2.67;;
56770;SDS011;42641;59.794;17.616;2024-02-28T14:32:57;2.97;;;2.67;;